sensor_id;sensor_type;location;lat;lon;timestamp;temperature;humidity
38223;DHT22;24024;51.186;6.458;2023-07-24T00:01:09;22.60;70.20
38223;DHT22;24024;51.186;6.458;2023-07-24T00:03:36;22.70;70.00
38223;DHT22;24024;51.186;6.458;2023-07-24T00:06:03;22.70;69.60
38223;DHT22;24024;51.186;6.458;2023-07-24T00:08:29;22.70;69.70
38223;DHT22;24024;51.186;6.458;2023-07-24T00:10:58;22.80;69.60
38223;DHT22;24024;51.186;6.458;2023-07-24T00:13:25;22.90;68.90
38223;DHT22;24024;51.186;6.458;2023-07-24T00:15:52;22.90;68.80
38223;DHT22;24024;51.186;6.458;2023-07-24T00:18:19;22.80;69.40
38223;DHT22;24024;51.186;6.458;2023-07-24T00:20:45;22.50;70.30
38223;DHT22;24024;51.186;6.458;2023-07-24T00:23:15;22.60;70.20
38223;DHT22;24024;51.186;6.458;2023-07-24T00:25:41;22.50;70.20
38223;DHT22;24024;51.186;6.458;2023-07-24T00:28:08;22.30;70.80
38223;DHT22;24024;51.186;6.458;2023-07-24T00:30:35;22.60;69.70
38223;DHT22;24024;51.186;6.458;2023-07-24T00:33:01;22.70;69.20
38223;DHT22;24024;51.186;6.458;2023-07-24T00:35:30;22.60;69.40
38223;DHT22;24024;51.186;6.458;2023-07-24T00:37:57;22.50;70.20
38223;DHT22;24024;51.186;6.458;2023-07-24T00:40:24;22.40;70.40
38223;DHT22;24024;51.186;6.458;2023-07-24T00:42:50;22.30;70.30
38223;DHT22;24024;51.186;6.458;2023-07-24T00:45:17;22.10;71.20
38223;DHT22;24024;51.186;6.458;2023-07-24T00:47:44;22.00;71.60
38223;DHT22;24024;51.186;6.458;2023-07-24T00:50:11;22.00;71.70
38223;DHT22;24024;51.186;6.458;2023-07-24T00:52:43;21.90;72.00
38223;DHT22;24024;51.186;6.458;2023-07-24T00:55:13;21.60;72.90
38223;DHT22;24024;51.186;6.458;2023-07-24T00:57:40;21.60;73.00
38223;DHT22;24024;51.186;6.458;2023-07-24T01:00:10;21.60;73.20
38223;DHT22;24024;51.186;6.458;2023-07-24T01:02:37;21.60;72.70
38223;DHT22;24024;51.186;6.458;2023-07-24T01:05:05;21.70;72.70
38223;DHT22;24024;51.186;6.458;2023-07-24T01:07:32;21.70;72.40
38223;DHT22;24024;51.186;6.458;2023-07-24T01:09:59;21.90;72.10
38223;DHT22;24024;51.186;6.458;2023-07-24T01:12:35;21.70;72.30
38223;DHT22;24024;51.186;6.458;2023-07-24T01:17:59;21.40;73.50
38223;DHT22;24024;51.186;6.458;2023-07-24T01:20:30;21.40;73.60
38223;DHT22;24024;51.186;6.458;2023-07-24T01:23:21;21.30;73.70
38223;DHT22;24024;51.186;6.458;2023-07-24T01:25:58;21.30;73.80
38223;DHT22;24024;51.186;6.458;2023-07-24T01:28:26;21.20;74.00
38223;DHT22;24024;51.186;6.458;2023-07-24T01:30:53;21.20;74.30
38223;DHT22;24024;51.186;6.458;2023-07-24T01:33:21;21.20;74.00
38223;DHT22;24024;51.186;6.458;2023-07-24T01:35:58;21.20;74.30
38223;DHT22;24024;51.186;6.458;2023-07-24T01:38:26;21.10;74.20
38223;DHT22;24024;51.186;6.458;2023-07-24T01:40:54;21.20;74.00
38223;DHT22;24024;51.186;6.458;2023-07-24T01:43:25;21.20;74.00
38223;DHT22;24024;51.186;6.458;2023-07-24T01:45:53;21.30;73.80
38223;DHT22;24024;51.186;6.458;2023-07-24T01:48:22;21.40;73.40
38223;DHT22;24024;51.186;6.458;2023-07-24T01:50:49;21.40;73.20
38223;DHT22;24024;51.186;6.458;2023-07-24T01:53:16;21.50;72.90
38223;DHT22;24024;51.186;6.458;2023-07-24T01:55:43;21.60;72.60
38223;DHT22;24024;51.186;6.458;2023-07-24T01:58:12;21.50;72.60
38223;DHT22;24024;51.186;6.458;2023-07-24T02:00:39;21.30;73.10
38223;DHT22;24024;51.186;6.458;2023-07-24T02:03:06;21.60;72.60
38223;DHT22;24024;51.186;6.458;2023-07-24T02:05:39;21.60;72.40
38223;DHT22;24024;51.186;6.458;2023-07-24T02:08:08;21.50;72.50
38223;DHT22;24024;51.186;6.458;2023-07-24T02:10:37;21.40;72.80
38223;DHT22;24024;51.186;6.458;2023-07-24T02:13:05;21.50;72.40
38223;DHT22;24024;51.186;6.458;2023-07-24T02:15:33;21.50;72.60
38223;DHT22;24024;51.186;6.458;2023-07-24T02:18:02;21.60;72.20
38223;DHT22;24024;51.186;6.458;2023-07-24T02:20:34;21.80;71.50
38223;DHT22;24024;51.186;6.458;2023-07-24T02:23:01;21.80;71.10
38223;DHT22;24024;51.186;6.458;2023-07-24T02:25:27;21.90;70.80
38223;DHT22;24024;51.186;6.458;2023-07-24T02:27:54;21.90;70.90
38223;DHT22;24024;51.186;6.458;2023-07-24T02:30:21;21.80;70.90
38223;DHT22;24024;51.186;6.458;2023-07-24T02:32:47;22.00;70.60
38223;DHT22;24024;51.186;6.458;2023-07-24T02:35:16;21.80;71.00
38223;DHT22;24024;51.186;6.458;2023-07-24T02:37:44;21.60;71.40
38223;DHT22;24024;51.186;6.458;2023-07-24T02:40:11;21.40;72.30
38223;DHT22;24024;51.186;6.458;2023-07-24T02:42:38;21.30;72.70
38223;DHT22;24024;51.186;6.458;2023-07-24T02:45:06;21.40;72.40
38223;DHT22;24024;51.186;6.458;2023-07-24T02:47:37;21.20;73.20
38223;DHT22;24024;51.186;6.458;2023-07-24T02:50:04;21.10;73.60
38223;DHT22;24024;51.186;6.458;2023-07-24T02:52:31;21.10;73.50
38223;DHT22;24024;51.186;6.458;2023-07-24T02:55:00;21.10;74.10
38223;DHT22;24024;51.186;6.458;2023-07-24T02:57:29;21.20;73.70
38223;DHT22;24024;51.186;6.458;2023-07-24T02:59:56;21.50;72.40
38223;DHT22;24024;51.186;6.458;2023-07-24T03:02:25;21.80;71.50
38223;DHT22;24024;51.186;6.458;2023-07-24T03:04:52;21.70;71.70
38223;DHT22;24024;51.186;6.458;2023-07-24T03:07:18;21.60;71.80
38223;DHT22;24024;51.186;6.458;2023-07-24T03:09:45;21.60;72.10
38223;DHT22;24024;51.186;6.458;2023-07-24T03:12:14;21.70;71.90
38223;DHT22;24024;51.186;6.458;2023-07-24T03:14:43;21.70;72.00
38223;DHT22;24024;51.186;6.458;2023-07-24T03:17:13;21.60;72.60
38223;DHT22;24024;51.186;6.458;2023-07-24T03:19:41;21.60;72.30
38223;DHT22;24024;51.186;6.458;2023-07-24T03:22:07;21.80;71.70
38223;DHT22;24024;51.186;6.458;2023-07-24T03:24:34;21.90;71.00
38223;DHT22;24024;51.186;6.458;2023-07-24T03:27:01;22.00;70.90
38223;DHT22;24024;51.186;6.458;2023-07-24T03:29:28;21.70;72.00
38223;DHT22;24024;51.186;6.458;2023-07-24T03:31:57;21.50;73.00
38223;DHT22;24024;51.186;6.458;2023-07-24T03:34:24;21.30;73.60
38223;DHT22;24024;51.186;6.458;2023-07-24T03:36:53;21.20;74.10
38223;DHT22;24024;51.186;6.458;2023-07-24T03:39:19;21.10;74.50
38223;DHT22;24024;51.186;6.458;2023-07-24T03:41:49;21.20;74.20
38223;DHT22;24024;51.186;6.458;2023-07-24T03:44:16;21.10;74.80
38223;DHT22;24024;51.186;6.458;2023-07-24T03:46:42;21.10;75.00
38223;DHT22;24024;51.186;6.458;2023-07-24T03:49:09;21.10;74.60
38223;DHT22;24024;51.186;6.458;2023-07-24T03:51:36;21.10;74.70
38223;DHT22;24024;51.186;6.458;2023-07-24T03:54:03;21.10;74.80
38223;DHT22;24024;51.186;6.458;2023-07-24T03:56:32;21.10;75.00
38223;DHT22;24024;51.186;6.458;2023-07-24T03:58:58;21.10;75.00
38223;DHT22;24024;51.186;6.458;2023-07-24T04:01:25;21.10;75.00
38223;DHT22;24024;51.186;6.458;2023-07-24T04:03:55;21.10;74.90
38223;DHT22;24024;51.186;6.458;2023-07-24T04:06:21;21.30;74.30
38223;DHT22;24024;51.186;6.458;2023-07-24T04:08:51;21.30;74.00
38223;DHT22;24024;51.186;6.458;2023-07-24T04:11:17;21.20;74.30
38223;DHT22;24024;51.186;6.458;2023-07-24T04:13:44;21.20;74.50
38223;DHT22;24024;51.186;6.458;2023-07-24T04:16:11;21.20;73.90
38223;DHT22;24024;51.186;6.458;2023-07-24T04:18:38;21.20;74.00
38223;DHT22;24024;51.186;6.458;2023-07-24T04:21:09;21.50;73.10
38223;DHT22;24024;51.186;6.458;2023-07-24T04:23:36;21.50;73.40
38223;DHT22;24024;51.186;6.458;2023-07-24T04:26:03;21.30;74.30
38223;DHT22;24024;51.186;6.458;2023-07-24T04:28:32;21.00;75.10
38223;DHT22;24024;51.186;6.458;2023-07-24T04:31:00;20.90;75.60
38223;DHT22;24024;51.186;6.458;2023-07-24T04:33:30;20.80;76.10
38223;DHT22;24024;51.186;6.458;2023-07-24T04:35:58;20.80;75.90
38223;DHT22;24024;51.186;6.458;2023-07-24T04:38:29;20.70;76.40
38223;DHT22;24024;51.186;6.458;2023-07-24T04:41:02;20.60;76.90
38223;DHT22;24024;51.186;6.458;2023-07-24T04:43:29;20.60;77.20
38223;DHT22;24024;51.186;6.458;2023-07-24T04:45:56;20.60;76.80
38223;DHT22;24024;51.186;6.458;2023-07-24T04:48:25;20.60;76.60
38223;DHT22;24024;51.186;6.458;2023-07-24T04:50:59;20.80;76.10
38223;DHT22;24024;51.186;6.458;2023-07-24T04:53:26;21.10;75.00
38223;DHT22;24024;51.186;6.458;2023-07-24T04:55:53;21.10;75.00
38223;DHT22;24024;51.186;6.458;2023-07-24T04:58:22;21.10;75.00
38223;DHT22;24024;51.186;6.458;2023-07-24T05:00:49;21.00;75.80
38223;DHT22;24024;51.186;6.458;2023-07-24T05:03:15;21.10;75.70
38223;DHT22;24024;51.186;6.458;2023-07-24T05:05:43;21.10;75.70
38223;DHT22;24024;51.186;6.458;2023-07-24T05:08:16;21.10;75.20
38223;DHT22;24024;51.186;6.458;2023-07-24T05:10:42;21.20;74.90
38223;DHT22;24024;51.186;6.458;2023-07-24T05:13:09;21.10;75.20
38223;DHT22;24024;51.186;6.458;2023-07-24T05:15:39;21.10;75.20
38223;DHT22;24024;51.186;6.458;2023-07-24T05:18:10;21.20;74.80
38223;DHT22;24024;51.186;6.458;2023-07-24T05:20:40;21.20;74.60
38223;DHT22;24024;51.186;6.458;2023-07-24T05:23:11;21.10;75.20
38223;DHT22;24024;51.186;6.458;2023-07-24T05:25:38;21.10;75.10
38223;DHT22;24024;51.186;6.458;2023-07-24T05:28:04;21.10;75.30
38223;DHT22;24024;51.186;6.458;2023-07-24T05:30:32;21.30;74.10
38223;DHT22;24024;51.186;6.458;2023-07-24T05:32:59;21.40;73.40
38223;DHT22;24024;51.186;6.458;2023-07-24T05:35:26;21.30;74.20
38223;DHT22;24024;51.186;6.458;2023-07-24T05:37:58;21.30;73.90
38223;DHT22;24024;51.186;6.458;2023-07-24T05:40:28;21.40;73.50
38223;DHT22;24024;51.186;6.458;2023-07-24T05:42:54;21.20;74.10
38223;DHT22;24024;51.186;6.458;2023-07-24T05:45:21;21.10;74.40
38223;DHT22;24024;51.186;6.458;2023-07-24T05:47:48;21.00;74.20
38223;DHT22;24024;51.186;6.458;2023-07-24T05:50:15;21.00;74.70
38223;DHT22;24024;51.186;6.458;2023-07-24T05:52:41;21.00;74.70
38223;DHT22;24024;51.186;6.458;2023-07-24T05:55:10;21.10;74.40
38223;DHT22;24024;51.186;6.458;2023-07-24T05:57:40;21.10;74.20
38223;DHT22;24024;51.186;6.458;2023-07-24T06:00:07;21.00;74.70
38223;DHT22;24024;51.186;6.458;2023-07-24T06:02:34;21.10;74.30
38223;DHT22;24024;51.186;6.458;2023-07-24T06:05:01;21.10;74.30
38223;DHT22;24024;51.186;6.458;2023-07-24T06:07:27;21.00;74.70
38223;DHT22;24024;51.186;6.458;2023-07-24T06:09:56;21.10;74.50
38223;DHT22;24024;51.186;6.458;2023-07-24T06:12:23;21.10;74.50
38223;DHT22;24024;51.186;6.458;2023-07-24T06:14:50;21.10;74.50
38223;DHT22;24024;51.186;6.458;2023-07-24T06:17:19;21.10;74.30
38223;DHT22;24024;51.186;6.458;2023-07-24T06:19:50;21.10;74.00
38223;DHT22;24024;51.186;6.458;2023-07-24T06:22:17;21.10;73.80
38223;DHT22;24024;51.186;6.458;2023-07-24T06:24:46;21.10;73.80
38223;DHT22;24024;51.186;6.458;2023-07-24T06:27:15;21.20;73.90
38223;DHT22;24024;51.186;6.458;2023-07-24T06:29:44;21.10;73.90
38223;DHT22;24024;51.186;6.458;2023-07-24T06:32:13;21.20;73.60
38223;DHT22;24024;51.186;6.458;2023-07-24T06:34:40;21.10;73.40
38223;DHT22;24024;51.186;6.458;2023-07-24T06:37:07;21.00;73.80
38223;DHT22;24024;51.186;6.458;2023-07-24T06:39:48;21.00;74.10
38223;DHT22;24024;51.186;6.458;2023-07-24T06:42:15;21.10;74.40
38223;DHT22;24024;51.186;6.458;2023-07-24T06:44:41;21.10;74.40
38223;DHT22;24024;51.186;6.458;2023-07-24T06:47:08;21.00;74.20
38223;DHT22;24024;51.186;6.458;2023-07-24T06:49:35;20.90;74.20
38223;DHT22;24024;51.186;6.458;2023-07-24T06:52:04;20.90;74.70
38223;DHT22;24024;51.186;6.458;2023-07-24T06:54:31;20.90;74.40
38223;DHT22;24024;51.186;6.458;2023-07-24T06:56:58;21.00;74.20
38223;DHT22;24024;51.186;6.458;2023-07-24T06:59:25;21.00;74.20
38223;DHT22;24024;51.186;6.458;2023-07-24T07:01:52;21.00;73.90
38223;DHT22;24024;51.186;6.458;2023-07-24T07:04:18;21.10;73.10
38223;DHT22;24024;51.186;6.458;2023-07-24T07:06:45;21.10;73.10
38223;DHT22;24024;51.186;6.458;2023-07-24T07:09:14;21.00;73.20
38223;DHT22;24024;51.186;6.458;2023-07-24T07:11:41;21.10;73.30
38223;DHT22;24024;51.186;6.458;2023-07-24T07:14:09;21.20;72.90
38223;DHT22;24024;51.186;6.458;2023-07-24T07:16:36;21.20;72.70
38223;DHT22;24024;51.186;6.458;2023-07-24T07:19:05;21.00;72.90
38223;DHT22;24024;51.186;6.458;2023-07-24T07:21:35;21.00;72.90
38223;DHT22;24024;51.186;6.458;2023-07-24T07:24:03;21.10;72.80
38223;DHT22;24024;51.186;6.458;2023-07-24T07:26:33;21.20;72.90
38223;DHT22;24024;51.186;6.458;2023-07-24T07:29:02;21.10;72.70
38223;DHT22;24024;51.186;6.458;2023-07-24T07:31:28;21.20;72.30
38223;DHT22;24024;51.186;6.458;2023-07-24T07:33:55;21.10;72.30
38223;DHT22;24024;51.186;6.458;2023-07-24T07:36:22;21.20;72.40
38223;DHT22;24024;51.186;6.458;2023-07-24T07:38:49;21.30;71.90
38223;DHT22;24024;51.186;6.458;2023-07-24T07:41:16;21.30;72.20
38223;DHT22;24024;51.186;6.458;2023-07-24T07:43:43;21.20;71.90
38223;DHT22;24024;51.186;6.458;2023-07-24T07:46:09;21.20;72.00
38223;DHT22;24024;51.186;6.458;2023-07-24T07:48:37;21.10;71.90
38223;DHT22;24024;51.186;6.458;2023-07-24T07:51:04;21.10;71.40
38223;DHT22;24024;51.186;6.458;2023-07-24T07:53:35;21.10;71.40
38223;DHT22;24024;51.186;6.458;2023-07-24T07:56:02;21.10;71.60
38223;DHT22;24024;51.186;6.458;2023-07-24T07:58:29;21.20;71.50
38223;DHT22;24024;51.186;6.458;2023-07-24T08:00:56;21.20;71.20
38223;DHT22;24024;51.186;6.458;2023-07-24T08:03:25;21.20;71.70
38223;DHT22;24024;51.186;6.458;2023-07-24T08:05:52;21.30;71.80
38223;DHT22;24024;51.186;6.458;2023-07-24T08:08:25;21.50;70.60
38223;DHT22;24024;51.186;6.458;2023-07-24T08:10:54;21.30;71.10
38223;DHT22;24024;51.186;6.458;2023-07-24T08:13:25;21.40;71.10
38223;DHT22;24024;51.186;6.458;2023-07-24T08:15:54;21.40;70.70
38223;DHT22;24024;51.186;6.458;2023-07-24T08:18:21;21.50;70.50
38223;DHT22;24024;51.186;6.458;2023-07-24T08:20:50;21.60;70.70
38223;DHT22;24024;51.186;6.458;2023-07-24T08:23:19;21.40;70.60
38223;DHT22;24024;51.186;6.458;2023-07-24T08:25:55;21.30;70.70
38223;DHT22;24024;51.186;6.458;2023-07-24T08:28:22;21.20;71.30
38223;DHT22;24024;51.186;6.458;2023-07-24T08:31:00;21.20;71.70
38223;DHT22;24024;51.186;6.458;2023-07-24T08:33:33;21.40;71.50
38223;DHT22;24024;51.186;6.458;2023-07-24T08:36:06;21.30;71.60
38223;DHT22;24024;51.186;6.458;2023-07-24T08:38:37;21.40;71.20
38223;DHT22;24024;51.186;6.458;2023-07-24T08:41:05;21.30;71.40
38223;DHT22;24024;51.186;6.458;2023-07-24T08:43:34;21.30;71.50
38223;DHT22;24024;51.186;6.458;2023-07-24T08:46:02;21.30;71.80
38223;DHT22;24024;51.186;6.458;2023-07-24T08:48:33;21.30;72.00
38223;DHT22;24024;51.186;6.458;2023-07-24T08:51:07;21.30;72.30
38223;DHT22;24024;51.186;6.458;2023-07-24T08:53:38;21.40;72.20
38223;DHT22;24024;51.186;6.458;2023-07-24T08:56:09;21.30;72.00
38223;DHT22;24024;51.186;6.458;2023-07-24T08:58:36;21.50;71.20
38223;DHT22;24024;51.186;6.458;2023-07-24T09:01:06;21.50;71.00
38223;DHT22;24024;51.186;6.458;2023-07-24T09:03:33;21.50;71.00
38223;DHT22;24024;51.186;6.458;2023-07-24T09:06:03;21.70;70.50
38223;DHT22;24024;51.186;6.458;2023-07-24T09:08:36;21.80;70.10
38223;DHT22;24024;51.186;6.458;2023-07-24T09:11:04;21.80;70.40
38223;DHT22;24024;51.186;6.458;2023-07-24T09:13:35;21.60;70.80
38223;DHT22;24024;51.186;6.458;2023-07-24T09:16:02;21.70;70.90
38223;DHT22;24024;51.186;6.458;2023-07-24T09:18:44;21.60;71.00
38223;DHT22;24024;51.186;6.458;2023-07-24T09:21:11;21.60;71.00
38223;DHT22;24024;51.186;6.458;2023-07-24T09:23:40;21.80;71.10
38223;DHT22;24024;51.186;6.458;2023-07-24T09:26:09;21.70;71.90
38223;DHT22;24024;51.186;6.458;2023-07-24T09:28:36;21.90;71.70
38223;DHT22;24024;51.186;6.458;2023-07-24T09:31:03;21.90;71.40
38223;DHT22;24024;51.186;6.458;2023-07-24T09:33:44;21.90;71.50
38223;DHT22;24024;51.186;6.458;2023-07-24T09:36:16;22.00;72.10
38223;DHT22;24024;51.186;6.458;2023-07-24T09:38:45;22.10;70.60
38223;DHT22;24024;51.186;6.458;2023-07-24T09:41:12;22.10;70.60
38223;DHT22;24024;51.186;6.458;2023-07-24T09:43:43;22.10;71.10
38223;DHT22;24024;51.186;6.458;2023-07-24T09:46:10;22.10;70.80
38223;DHT22;24024;51.186;6.458;2023-07-24T09:48:40;22.10;70.90
38223;DHT22;24024;51.186;6.458;2023-07-24T09:51:29;22.20;70.10
38223;DHT22;24024;51.186;6.458;2023-07-24T09:56:45;22.40;69.30
38223;DHT22;24024;51.186;6.458;2023-07-24T09:59:21;22.40;69.10
38223;DHT22;24024;51.186;6.458;2023-07-24T10:01:48;22.60;68.80
38223;DHT22;24024;51.186;6.458;2023-07-24T10:04:17;22.50;69.00
38223;DHT22;24024;51.186;6.458;2023-07-24T10:06:46;22.60;68.90
38223;DHT22;24024;51.186;6.458;2023-07-24T10:09:16;22.40;68.60
38223;DHT22;24024;51.186;6.458;2023-07-24T10:11:48;22.40;67.80
38223;DHT22;24024;51.186;6.458;2023-07-24T10:14:15;22.30;68.00
38223;DHT22;24024;51.186;6.458;2023-07-24T10:16:44;22.30;68.00
38223;DHT22;24024;51.186;6.458;2023-07-24T10:19:14;22.30;68.40
38223;DHT22;24024;51.186;6.458;2023-07-24T10:21:48;22.40;68.00
38223;DHT22;24024;51.186;6.458;2023-07-24T10:24:18;22.20;67.70
38223;DHT22;24024;51.186;6.458;2023-07-24T10:27:07;22.30;68.00
38223;DHT22;24024;51.186;6.458;2023-07-24T10:29:36;22.20;68.00
38223;DHT22;24024;51.186;6.458;2023-07-24T10:32:04;22.30;68.30
38223;DHT22;24024;51.186;6.458;2023-07-24T10:34:38;22.40;68.00
38223;DHT22;24024;51.186;6.458;2023-07-24T10:37:08;22.40;67.20
38223;DHT22;24024;51.186;6.458;2023-07-24T10:39:40;22.20;67.10
38223;DHT22;24024;51.186;6.458;2023-07-24T10:42:10;22.40;66.70
38223;DHT22;24024;51.186;6.458;2023-07-24T10:44:40;22.50;66.80
38223;DHT22;24024;51.186;6.458;2023-07-24T10:47:06;22.60;67.10
38223;DHT22;24024;51.186;6.458;2023-07-24T10:49:49;22.50;67.40
38223;DHT22;24024;51.186;6.458;2023-07-24T10:52:16;22.60;67.10
38223;DHT22;24024;51.186;6.458;2023-07-24T10:54:42;22.60;66.60
38223;DHT22;24024;51.186;6.458;2023-07-24T10:57:09;22.80;66.60
38223;DHT22;24024;51.186;6.458;2023-07-24T10:59:40;22.90;66.50
38223;DHT22;24024;51.186;6.458;2023-07-24T11:02:11;22.60;66.30
38223;DHT22;24024;51.186;6.458;2023-07-24T11:04:42;22.40;68.90
38223;DHT22;24024;51.186;6.458;2023-07-24T11:07:09;22.10;70.80
38223;DHT22;24024;51.186;6.458;2023-07-24T11:09:36;21.90;72.60
38223;DHT22;24024;51.186;6.458;2023-07-24T11:12:16;21.50;72.80
38223;DHT22;24024;51.186;6.458;2023-07-24T11:14:50;21.40;73.50
38223;DHT22;24024;51.186;6.458;2023-07-24T11:17:17;21.80;73.10
38223;DHT22;24024;51.186;6.458;2023-07-24T11:19:43;21.50;74.40
38223;DHT22;24024;51.186;6.458;2023-07-24T11:22:10;21.30;74.00
38223;DHT22;24024;51.186;6.458;2023-07-24T11:24:47;20.70;72.20
38223;DHT22;24024;51.186;6.458;2023-07-24T11:27:15;20.60;69.80
38223;DHT22;24024;51.186;6.458;2023-07-24T11:29:48;20.30;71.70
38223;DHT22;24024;51.186;6.458;2023-07-24T11:32:18;20.30;72.50
38223;DHT22;24024;51.186;6.458;2023-07-24T11:34:49;20.40;72.90
38223;DHT22;24024;51.186;6.458;2023-07-24T11:37:17;20.60;73.00
38223;DHT22;24024;51.186;6.458;2023-07-24T11:40:02;20.90;73.80
38223;DHT22;24024;51.186;6.458;2023-07-24T11:42:43;21.00;74.00
38223;DHT22;24024;51.186;6.458;2023-07-24T11:45:11;21.10;73.80
38223;DHT22;24024;51.186;6.458;2023-07-24T11:47:48;21.20;74.30
38223;DHT22;24024;51.186;6.458;2023-07-24T11:50:17;21.30;74.20
38223;DHT22;24024;51.186;6.458;2023-07-24T11:52:49;21.30;74.10
38223;DHT22;24024;51.186;6.458;2023-07-24T11:55:31;21.20;74.30
38223;DHT22;24024;51.186;6.458;2023-07-24T11:58:01;21.30;74.50
38223;DHT22;24024;51.186;6.458;2023-07-24T12:00:32;21.60;74.10
38223;DHT22;24024;51.186;6.458;2023-07-24T12:03:03;21.90;73.60
38223;DHT22;24024;51.186;6.458;2023-07-24T12:05:41;21.80;73.70
38223;DHT22;24024;51.186;6.458;2023-07-24T12:08:09;21.60;74.10
38223;DHT22;24024;51.186;6.458;2023-07-24T12:10:39;21.70;73.70
38223;DHT22;24024;51.186;6.458;2023-07-24T12:13:07;21.70;72.70
38223;DHT22;24024;51.186;6.458;2023-07-24T12:15:34;21.70;72.40
38223;DHT22;24024;51.186;6.458;2023-07-24T12:18:03;21.80;71.40
38223;DHT22;24024;51.186;6.458;2023-07-24T12:20:31;21.70;72.20
38223;DHT22;24024;51.186;6.458;2023-07-24T12:23:00;21.60;72.10
38223;DHT22;24024;51.186;6.458;2023-07-24T12:25:27;21.60;73.80
38223;DHT22;24024;51.186;6.458;2023-07-24T12:27:56;21.60;73.80
38223;DHT22;24024;51.186;6.458;2023-07-24T12:30:23;21.60;73.40
38223;DHT22;24024;51.186;6.458;2023-07-24T12:32:52;21.90;71.50
38223;DHT22;24024;51.186;6.458;2023-07-24T12:35:19;21.80;70.40
38223;DHT22;24024;51.186;6.458;2023-07-24T12:37:47;21.90;69.80
38223;DHT22;24024;51.186;6.458;2023-07-24T12:40:14;22.10;69.80
38223;DHT22;24024;51.186;6.458;2023-07-24T12:42:43;22.10;69.10
38223;DHT22;24024;51.186;6.458;2023-07-24T12:45:10;22.10;69.10
38223;DHT22;24024;51.186;6.458;2023-07-24T12:47:37;22.20;68.70
38223;DHT22;24024;51.186;6.458;2023-07-24T12:50:04;22.10;69.00
38223;DHT22;24024;51.186;6.458;2023-07-24T12:52:34;22.10;69.70
38223;DHT22;24024;51.186;6.458;2023-07-24T12:55:00;22.10;70.00
38223;DHT22;24024;51.186;6.458;2023-07-24T12:57:29;22.00;70.50
38223;DHT22;24024;51.186;6.458;2023-07-24T12:59:56;22.00;71.00
38223;DHT22;24024;51.186;6.458;2023-07-24T13:02:23;22.10;70.90
38223;DHT22;24024;51.186;6.458;2023-07-24T13:04:50;22.30;70.70
38223;DHT22;24024;51.186;6.458;2023-07-24T13:07:17;22.50;71.50
38223;DHT22;24024;51.186;6.458;2023-07-24T13:09:44;22.70;69.10
38223;DHT22;24024;51.186;6.458;2023-07-24T13:12:11;22.90;68.20
38223;DHT22;24024;51.186;6.458;2023-07-24T13:14:40;23.10;68.40
38223;DHT22;24024;51.186;6.458;2023-07-24T13:17:09;23.50;68.10
38223;DHT22;24024;51.186;6.458;2023-07-24T13:19:38;23.60;68.00
38223;DHT22;24024;51.186;6.458;2023-07-24T13:22:08;23.90;68.20
38223;DHT22;24024;51.186;6.458;2023-07-24T13:24:34;24.10;65.40
38223;DHT22;24024;51.186;6.458;2023-07-24T13:27:04;24.20;64.00
38223;DHT22;24024;51.186;6.458;2023-07-24T13:29:31;24.20;62.80
38223;DHT22;24024;51.186;6.458;2023-07-24T13:31:58;24.30;62.10
38223;DHT22;24024;51.186;6.458;2023-07-24T13:34:27;24.50;62.20
38223;DHT22;24024;51.186;6.458;2023-07-24T13:36:56;24.40;61.90
38223;DHT22;24024;51.186;6.458;2023-07-24T13:39:25;24.30;62.20
38223;DHT22;24024;51.186;6.458;2023-07-24T13:41:57;24.10;62.90
38223;DHT22;24024;51.186;6.458;2023-07-24T13:44:23;24.10;63.90
38223;DHT22;24024;51.186;6.458;2023-07-24T13:46:50;24.10;63.30
38223;DHT22;24024;51.186;6.458;2023-07-24T13:49:22;23.90;62.90
38223;DHT22;24024;51.186;6.458;2023-07-24T13:51:48;23.90;63.30
38223;DHT22;24024;51.186;6.458;2023-07-24T13:54:15;23.70;63.30
38223;DHT22;24024;51.186;6.458;2023-07-24T13:56:42;23.50;63.30
38223;DHT22;24024;51.186;6.458;2023-07-24T13:59:11;23.30;63.50
38223;DHT22;24024;51.186;6.458;2023-07-24T14:01:38;23.20;63.10
38223;DHT22;24024;51.186;6.458;2023-07-24T14:04:05;23.10;63.50
38223;DHT22;24024;51.186;6.458;2023-07-24T14:06:32;23.10;63.80
38223;DHT22;24024;51.186;6.458;2023-07-24T14:08:59;23.10;64.60
38223;DHT22;24024;51.186;6.458;2023-07-24T14:11:26;23.00;65.40
38223;DHT22;24024;51.186;6.458;2023-07-24T14:13:55;22.90;66.40
38223;DHT22;24024;51.186;6.458;2023-07-24T14:16:22;23.00;66.40
38223;DHT22;24024;51.186;6.458;2023-07-24T14:18:48;22.80;66.30
38223;DHT22;24024;51.186;6.458;2023-07-24T14:21:15;22.80;66.80
38223;DHT22;24024;51.186;6.458;2023-07-24T14:23:44;22.70;67.50
38223;DHT22;24024;51.186;6.458;2023-07-24T14:26:11;22.80;68.20
38223;DHT22;24024;51.186;6.458;2023-07-24T14:28:38;22.80;68.90
38223;DHT22;24024;51.186;6.458;2023-07-24T14:31:05;22.90;69.60
38223;DHT22;24024;51.186;6.458;2023-07-24T14:33:33;22.90;69.50
38223;DHT22;24024;51.186;6.458;2023-07-24T14:36:02;22.80;69.10
38223;DHT22;24024;51.186;6.458;2023-07-24T14:38:29;22.90;69.80
38223;DHT22;24024;51.186;6.458;2023-07-24T14:40:58;23.00;69.30
38223;DHT22;24024;51.186;6.458;2023-07-24T14:43:28;23.10;67.70
38223;DHT22;24024;51.186;6.458;2023-07-24T14:45:58;23.30;64.70
38223;DHT22;24024;51.186;6.458;2023-07-24T14:48:25;23.60;62.60
38223;DHT22;24024;51.186;6.458;2023-07-24T14:50:52;23.70;62.70
38223;DHT22;24024;51.186;6.458;2023-07-24T14:53:18;24.00;60.60
38223;DHT22;24024;51.186;6.458;2023-07-24T14:55:50;24.20;57.90
38223;DHT22;24024;51.186;6.458;2023-07-24T14:58:21;24.40;56.70
38223;DHT22;24024;51.186;6.458;2023-07-24T15:00:48;24.50;55.60
38223;DHT22;24024;51.186;6.458;2023-07-24T15:03:15;24.70;56.00
38223;DHT22;24024;51.186;6.458;2023-07-24T15:05:42;24.80;55.00
38223;DHT22;24024;51.186;6.458;2023-07-24T15:08:09;25.00;55.50
38223;DHT22;24024;51.186;6.458;2023-07-24T15:10:35;25.00;54.50
38223;DHT22;24024;51.186;6.458;2023-07-24T15:13:02;25.00;55.60
38223;DHT22;24024;51.186;6.458;2023-07-24T15:15:29;25.00;55.50
38223;DHT22;24024;51.186;6.458;2023-07-24T15:17:57;24.90;54.40
38223;DHT22;24024;51.186;6.458;2023-07-24T15:20:24;24.60;53.60
38223;DHT22;24024;51.186;6.458;2023-07-24T15:22:51;24.40;53.60
38223;DHT22;24024;51.186;6.458;2023-07-24T15:25:22;24.40;53.90
38223;DHT22;24024;51.186;6.458;2023-07-24T15:27:49;24.60;53.60
38223;DHT22;24024;51.186;6.458;2023-07-24T15:30:18;24.60;52.50
38223;DHT22;24024;51.186;6.458;2023-07-24T15:32:45;24.60;53.90
38223;DHT22;24024;51.186;6.458;2023-07-24T15:35:15;24.60;54.20
38223;DHT22;24024;51.186;6.458;2023-07-24T15:37:44;24.90;54.40
38223;DHT22;24024;51.186;6.458;2023-07-24T15:40:14;24.90;53.60
38223;DHT22;24024;51.186;6.458;2023-07-24T15:42:41;24.90;53.90
38223;DHT22;24024;51.186;6.458;2023-07-24T15:45:08;25.00;52.90